Time;durP1;ratioP1;P1;durP2;ratioP2;P2;SDS_P1;SDS_P2;PMS_P1;PMS_P2;Temp;Humidity;BMP_temperature;BMP_pressure;BME280_temperature;BME280_humidity;BME280_pressure;Samples;Min_cycle;Max_cycle;Signal;HPM_P1;HPM_P2
2022/03/12 00:00:50;;;;;;;5.10;4.60;;;17.00;44.20;;;;;;5053190;28;20210;-65
2022/03/12 00:03:16;;;;;;;5.00;4.50;;;17.00;44.10;;;;;;5052409;28;20179;-65
2022/03/12 00:06:06;;;;;;;4.97;4.28;;;17.00;44.10;;;;;;5053077;28;20214;-66
2022/03/12 00:08:51;;;;;;;4.68;4.18;;;17.00;44.00;;;;;;5051975;28;20191;-66
2022/03/12 00:11:21;;;;;;;4.45;4.05;;;17.00;44.00;;;;;;5053120;28;20190;-67
2022/03/12 00:13:47;;;;;;;5.30;4.80;;;17.00;44.00;;;;;;5053388;28;20242;-67
2022/03/12 00:16:18;;;;;;;4.70;4.20;;;17.00;44.00;;;;;;5052118;28;20217;-68
2022/03/12 00:18:46;;;;;;;5.43;4.53;;;17.00;44.00;;;;;;5053088;28;20175;-67
2022/03/12 00:21:13;;;;;;;4.45;3.95;;;17.00;44.00;;;;;;5051920;28;20323;-67
2022/03/12 00:23:40;;;;;;;5.47;3.97;;;17.00;44.00;;;;;;5052457;28;20278;-67
2022/03/12 00:26:06;;;;;;;5.57;4.00;;;17.00;44.10;;;;;;5052628;28;20328;-67
2022/03/12 00:28:31;;;;;;;4.85;4.35;;;17.00;44.00;;;;;;5052966;28;20178;-67
2022/03/12 00:30:57;;;;;;;5.47;3.90;;;17.00;44.00;;;;;;5052121;28;20175;-67
2022/03/12 00:33:24;;;;;;;5.18;3.92;;;16.90;44.00;;;;;;5052124;28;20179;-65
2022/03/12 00:35:50;;;;;;;5.63;4.32;;;16.90;44.00;;;;;;5052862;28;20179;-65
2022/03/12 00:38:16;;;;;;;4.28;3.88;;;16.90;43.90;;;;;;5051767;28;20179;-66
2022/03/12 00:40:42;;;;;;;4.88;4.20;;;16.90;43.90;;;;;;5052704;28;20194;-67
2022/03/12 00:43:09;;;;;;;4.95;4.18;;;16.90;43.90;;;;;;5052219;28;20203;-66
2022/03/12 00:45:35;;;;;;;5.55;4.30;;;16.90;43.80;;;;;;5051685;28;20310;-67
2022/03/12 00:48:00;;;;;;;4.97;3.70;;;16.90;43.90;;;;;;5052413;28;20278;-66
2022/03/12 00:50:26;;;;;;;4.25;3.85;;;16.90;43.80;;;;;;5052349;28;20713;-66
2022/03/12 00:52:51;;;;;;;4.82;4.15;;;16.90;43.90;;;;;;5051974;28;20215;-66
2022/03/12 00:55:17;;;;;;;4.40;4.00;;;16.90;44.50;;;;;;5052136;28;20250;-66
2022/03/12 00:57:43;;;;;;;4.60;4.10;;;16.90;43.80;;;;;;5051751;28;20167;-67
2022/03/12 01:00:18;;;;;;;4.72;4.22;;;16.90;43.80;;;;;;5052114;28;20178;-66
2022/03/12 01:02:44;;;;;;;5.05;4.38;;;16.90;43.80;;;;;;5052526;28;20181;-65
2022/03/12 01:05:10;;;;;;;4.18;3.78;;;16.90;43.80;;;;;;5051208;28;20222;-66
2022/03/12 01:07:35;;;;;;;4.63;4.22;;;16.90;43.80;;;;;;5052184;28;20646;-65
2022/03/12 01:10:01;;;;;;;5.03;4.38;;;16.80;43.80;;;;;;5052283;28;20194;-67
2022/03/12 01:12:27;;;;;;;4.05;3.70;;;16.80;43.80;;;;;;5051244;28;20194;-68
2022/03/12 01:14:52;;;;;;;4.43;3.72;;;16.80;43.80;;;;;;5052109;28;20480;-68
2022/03/12 01:17:24;;;;;;;4.25;3.88;;;16.80;43.70;;;;;;5052126;28;20183;-67
2022/03/12 01:19:49;;;;;;;5.38;3.63;;;16.80;43.70;;;;;;5051375;28;20179;-67
2022/03/12 01:22:20;;;;;;;3.95;3.58;;;16.80;43.70;;;;;;5051400;28;20198;-68
2022/03/12 01:24:48;;;;;;;3.72;3.42;;;16.80;43.70;;;;;;5051919;28;20287;-67
2022/03/12 01:27:15;;;;;;;3.78;3.47;;;16.80;43.70;;;;;;5051001;28;20171;-67
2022/03/12 01:29:41;;;;;;;4.25;3.85;;;16.80;43.60;;;;;;5051734;28;20649;-67
2022/03/12 01:32:07;;;;;;;4.70;3.88;;;16.80;43.70;;;;;;5051345;28;20638;-67
2022/03/12 01:34:33;;;;;;;4.43;3.78;;;16.80;43.70;;;;;;5051033;28;20733;-66
2022/03/12 01:36:58;;;;;;;4.55;4.15;;;16.80;43.60;;;;;;5051842;28;20265;-65
2022/03/12 01:39:24;;;;;;;5.32;4.13;;;16.80;43.60;;;;;;5051588;28;20187;-66
2022/03/12 01:41:49;;;;;;;4.18;3.78;;;16.80;43.60;;;;;;5051148;28;20205;-66
2022/03/12 01:44:15;;;;;;;4.32;3.92;;;16.80;43.60;;;;;;5051318;28;20300;-66
2022/03/12 01:46:48;;;;;;;4.25;3.85;;;16.80;43.60;;;;;;5051988;28;20180;-67
2022/03/12 01:49:22;;;;;;;4.25;3.85;;;16.80;43.80;;;;;;5051326;28;20175;-66
2022/03/12 01:51:49;;;;;;;3.38;3.08;;;16.80;43.60;;;;;;5051609;28;20565;-66
2022/03/12 01:54:22;;;;;;;5.15;4.30;;;16.80;43.70;;;;;;5050513;28;20221;-66
2022/03/12 01:56:47;;;;;;;4.00;3.60;;;16.70;43.60;;;;;;5051215;28;20321;-67
2022/03/12 01:59:13;;;;;;;4.72;3.95;;;16.70;43.60;;;;;;5051355;28;20592;-66
2022/03/12 02:01:38;;;;;;;3.88;3.50;;;16.80;44.40;;;;;;5050995;28;20515;-65
2022/03/12 02:04:06;;;;;;;3.88;3.58;;;16.70;43.60;;;;;;5051591;28;20232;-66
2022/03/12 02:06:32;;;;;;;3.90;3.50;;;16.70;43.70;;;;;;5051167;28;20614;-66
2022/03/12 02:08:58;;;;;;;3.72;3.42;;;16.70;43.70;;;;;;5050605;28;20270;-67
2022/03/12 02:11:49;;;;;;;4.35;3.95;;;16.70;43.80;;;;;;5050832;28;20564;-67
2022/03/12 02:14:15;;;;;;;3.97;3.20;;;16.70;43.70;;;;;;5051212;28;20167;-67
2022/03/12 02:16:53;;;;;;;3.60;3.30;;;16.70;43.80;;;;;;5050408;28;20195;-68
2022/03/12 02:19:19;;;;;;;4.38;3.75;;;16.70;43.80;;;;;;5050895;28;20638;-66
2022/03/12 02:21:58;;;;;;;3.88;3.40;;;16.70;43.80;;;;;;5051036;28;20262;-67
2022/03/12 02:24:26;;;;;;;4.00;3.60;;;16.70;43.90;;;;;;5050808;28;20176;-67
2022/03/12 02:26:52;;;;;;;4.25;3.85;;;16.70;43.80;;;;;;5051372;28;20202;-68
2022/03/12 02:29:22;;;;;;;3.83;3.42;;;16.70;43.70;;;;;;5050059;28;20996;-68
2022/03/12 02:31:50;;;;;;;3.45;3.15;;;16.70;43.80;;;;;;5051080;28;20237;-67
2022/03/12 02:34:20;;;;;;;4.22;3.47;;;16.70;43.90;;;;;;5050581;28;20179;-66
2022/03/12 02:36:45;;;;;;;4.00;3.60;;;16.70;43.90;;;;;;5050322;28;20178;-66
2022/03/12 02:39:11;;;;;;;3.63;3.33;;;16.70;43.80;;;;;;5050780;28;20190;-66
2022/03/12 02:41:36;;;;;;;3.53;3.22;;;16.70;43.90;;;;;;5051051;28;20631;-66
2022/03/12 02:44:02;;;;;;;4.30;3.95;;;16.70;43.90;;;;;;5051649;28;20213;-67
2022/03/12 02:46:29;;;;;;;3.63;3.33;;;16.70;43.90;;;;;;5054402;28;20284;-67
2022/03/12 02:48:56;;;;;;;3.65;3.35;;;16.70;43.90;;;;;;5054682;28;20179;-67
2022/03/12 02:51:22;;;;;;;3.83;3.42;;;16.60;44.00;;;;;;5053925;28;20187;-67
2022/03/12 02:53:51;;;;;;;3.78;3.47;;;16.60;44.00;;;;;;5054762;28;20167;-66
2022/03/12 02:56:18;;;;;;;3.60;3.30;;;16.60;44.00;;;;;;5054236;28;20254;-66
2022/03/12 02:58:44;;;;;;;3.72;3.40;;;16.60;43.90;;;;;;5053919;28;20190;-67
2022/03/12 03:01:14;;;;;;;3.83;3.40;;;16.60;44.00;;;;;;5054196;28;20171;-66
2022/03/12 03:03:41;;;;;;;3.92;3.63;;;16.60;44.00;;;;;;5054655;28;20183;-66
2022/03/12 03:06:07;;;;;;;3.45;3.17;;;16.60;44.10;;;;;;5053396;28;20228;-67
2022/03/12 03:08:36;;;;;;;3.72;3.20;;;16.60;44.00;;;;;;5054577;28;20340;-67
2022/03/12 03:11:10;;;;;;;3.58;3.17;;;16.60;44.10;;;;;;5054425;28;20380;-67
2022/03/12 03:13:36;;;;;;;4.15;3.75;;;16.60;44.10;;;;;;5052598;28;20270;-67
2022/03/12 03:16:18;;;;;;;3.90;3.35;;;16.60;44.20;;;;;;5054545;28;20201;-68
2022/03/12 03:18:50;;;;;;;3.78;3.47;;;16.60;44.10;;;;;;5053902;28;20218;-67
2022/03/12 03:21:16;;;;;;;4.13;3.72;;;16.60;44.20;;;;;;5053766;28;20300;-67
2022/03/12 03:23:43;;;;;;;3.60;3.30;;;16.60;44.10;;;;;;5053810;28;20639;-67
2022/03/12 03:26:08;;;;;;;3.65;3.35;;;16.60;44.10;;;;;;5053860;28;20317;-67
2022/03/12 03:28:34;;;;;;;3.83;3.42;;;16.60;44.20;;;;;;5055129;28;20270;-68
2022/03/12 03:30:59;;;;;;;4.07;3.45;;;16.50;44.10;;;;;;5055139;28;20171;-67
2022/03/12 03:33:25;;;;;;;3.95;3.63;;;16.60;44.20;;;;;;5053925;28;20206;-66
2022/03/12 03:35:50;;;;;;;3.60;3.28;;;16.60;44.30;;;;;;5054736;28;20182;-66
2022/03/12 03:38:16;;;;;;;3.50;3.20;;;16.50;44.30;;;;;;5054427;28;20190;-66
2022/03/12 03:40:42;;;;;;;3.78;3.40;;;16.50;44.30;;;;;;5054019;28;20273;-67
2022/03/12 03:43:14;;;;;;;3.67;3.38;;;16.50;44.30;;;;;;5054600;28;20171;-66
2022/03/12 03:45:40;;;;;;;4.30;3.63;;;16.60;44.30;;;;;;5054789;28;20265;-66
2022/03/12 03:48:12;;;;;;;3.17;2.88;;;16.50;44.30;;;;;;5053724;28;20635;-67
2022/03/12 03:50:37;;;;;;;3.50;3.20;;;16.50;44.40;;;;;;5053598;28;20522;-67
2022/03/12 03:53:03;;;;;;;3.80;3.40;;;16.50;44.40;;;;;;5054636;28;20744;-67
2022/03/12 03:55:30;;;;;;;3.45;3.15;;;16.50;44.50;;;;;;5053039;28;20223;-67
2022/03/12 03:57:57;;;;;;;3.35;3.05;;;16.50;44.40;;;;;;5054666;28;20179;-66
2022/03/12 04:00:22;;;;;;;3.72;3.42;;;16.50;44.40;;;;;;5054234;28;20205;-66
2022/03/12 04:03:08;;;;;;;4.57;3.63;;;16.50;44.40;;;;;;5053715;28;20171;-65
2022/03/12 04:05:35;;;;;;;3.50;3.20;;;16.50;44.50;;;;;;5054232;28;20234;-66
2022/03/12 04:08:01;;;;;;;4.07;3.63;;;16.50;44.60;;;;;;5053436;28;20175;-66
2022/03/12 04:10:27;;;;;;;3.20;2.90;;;16.50;44.50;;;;;;5054194;28;20244;-68
2022/03/12 04:12:53;;;;;;;5.60;3.78;;;16.50;44.60;;;;;;5054513;28;20262;-68
2022/03/12 04:15:20;;;;;;;3.38;3.05;;;16.50;44.50;;;;;;5053089;28;20604;-67
2022/03/12 04:17:45;;;;;;;3.03;2.83;;;16.50;44.60;;;;;;5054132;28;20224;-68
2022/03/12 04:20:14;;;;;;;3.67;3.38;;;16.50;44.60;;;;;;5053798;28;20171;-67
2022/03/12 04:22:40;;;;;;;4.05;3.65;;;16.50;44.50;;;;;;5053238;28;20661;-68
2022/03/12 04:25:10;;;;;;;3.45;3.15;;;16.50;44.60;;;;;;5054032;28;20219;-67
2022/03/12 04:27:36;;;;;;;3.88;3.58;;;16.50;44.60;;;;;;5053057;28;20182;-68
2022/03/12 04:30:02;;;;;;;3.80;3.50;;;16.50;45.30;;;;;;5053259;28;20258;-67
2022/03/12 04:32:28;;;;;;;3.60;3.30;;;16.50;44.70;;;;;;5053433;28;20535;-67
2022/03/12 04:34:53;;;;;;;3.28;3.03;;;16.40;44.60;;;;;;5053636;28;20171;-66
2022/03/12 04:37:19;;;;;;;3.50;3.20;;;16.50;44.70;;;;;;5052826;28;20174;-66
2022/03/12 04:39:48;;;;;;;3.50;3.20;;;16.50;44.70;;;;;;5053881;28;20297;-66
2022/03/12 04:42:21;;;;;;;3.53;3.22;;;16.40;44.70;;;;;;5053458;28;20199;-67
2022/03/12 04:44:47;;;;;;;3.60;3.30;;;16.50;44.80;;;;;;5053148;28;20206;-67
2022/03/12 04:47:12;;;;;;;3.50;3.00;;;16.50;44.80;;;;;;5053153;28;20657;-67
2022/03/12 04:49:38;;;;;;;3.42;3.13;;;16.50;44.80;;;;;;5053281;28;20174;-66
2022/03/12 04:52:04;;;;;;;3.38;3.08;;;16.40;44.70;;;;;;5053420;28;20645;-67
2022/03/12 04:54:32;;;;;;;3.55;3.25;;;16.40;44.80;;;;;;5053071;28;20175;-66
2022/03/12 04:56:58;;;;;;;3.75;3.38;;;16.40;44.80;;;;;;5052536;28;20251;-66
2022/03/12 04:59:23;;;;;;;3.17;2.97;;;16.40;44.80;;;;;;5052892;28;20171;-66
2022/03/12 05:01:49;;;;;;;3.50;3.20;;;16.40;44.80;;;;;;5053127;28;20708;-66
2022/03/12 05:04:15;;;;;;;3.13;2.83;;;16.40;44.90;;;;;;5052102;28;20171;-66
2022/03/12 05:06:40;;;;;;;3.55;3.25;;;16.40;44.90;;;;;;5052688;28;20210;-66
2022/03/12 05:09:06;;;;;;;3.13;2.90;;;16.40;44.90;;;;;;5053100;28;20205;-67
2022/03/12 05:11:35;;;;;;;3.42;3.13;;;16.40;44.90;;;;;;5052535;28;20269;-67
2022/03/12 05:14:02;;;;;;;3.33;3.03;;;16.40;44.90;;;;;;5052932;28;20713;-67
2022/03/12 05:16:28;;;;;;;3.30;3.00;;;16.40;44.90;;;;;;5052706;28;20202;-68
2022/03/12 05:18:56;;;;;;;4.05;3.75;;;16.40;44.90;;;;;;5052187;28;20195;-67
2022/03/12 05:21:21;;;;;;;3.53;3.22;;;16.30;45.00;;;;;;5052568;28;20229;-67
2022/03/12 05:23:47;;;;;;;3.72;3.40;;;16.40;44.90;;;;;;5052999;28;20175;-67
2022/03/12 05:26:12;;;;;;;3.90;3.50;;;16.30;44.90;;;;;;5051730;28;20211;-67
2022/03/12 05:28:39;;;;;;;3.60;2.92;;;16.30;44.90;;;;;;5052795;28;20638;-68
2022/03/12 05:31:04;;;;;;;3.40;3.10;;;16.40;45.00;;;;;;5052666;28;20198;-67
2022/03/12 05:33:30;;;;;;;3.25;2.83;;;16.40;45.00;;;;;;5051656;28;20198;-66
2022/03/12 05:35:56;;;;;;;3.28;3.08;;;16.30;44.90;;;;;;5052878;28;20186;-66
2022/03/12 05:38:23;;;;;;;3.47;3.13;;;16.30;45.00;;;;;;5052516;28;20544;-66
2022/03/12 05:40:49;;;;;;;3.15;2.95;;;16.30;45.00;;;;;;5052000;28;20189;-66
2022/03/12 05:43:15;;;;;;;3.50;3.20;;;16.30;45.00;;;;;;5052336;28;20719;-67
2022/03/12 05:45:47;;;;;;;3.50;3.20;;;16.30;45.00;;;;;;5052414;28;20324;-66
2022/03/12 05:48:14;;;;;;;3.65;2.90;;;16.30;45.00;;;;;;5051831;28;20178;-67
2022/03/12 05:50:39;;;;;;;3.35;3.05;;;16.30;45.00;;;;;;5052667;28;20179;-67
2022/03/12 05:53:08;;;;;;;3.28;3.08;;;16.30;45.00;;;;;;5051841;28;20181;-66
2022/03/12 05:55:35;;;;;;;3.58;3.28;;;16.30;45.00;;;;;;5051082;28;20570;-66
2022/03/12 05:58:00;;;;;;;3.63;3.33;;;16.30;45.00;;;;;;5052639;28;20175;-66
2022/03/12 06:00:26;;;;;;;3.22;2.95;;;16.30;45.10;;;;;;5051332;28;20186;-66
2022/03/12 06:02:52;;;;;;;3.78;3.47;;;16.30;45.20;;;;;;5052652;28;20175;-66
2022/03/12 06:05:18;;;;;;;3.35;3.05;;;16.30;45.10;;;;;;5052105;28;20206;-66
2022/03/12 06:07:46;;;;;;;3.60;3.30;;;16.30;45.10;;;;;;5051907;28;20175;-66
2022/03/12 06:10:16;;;;;;;3.30;3.00;;;16.20;45.00;;;;;;5051909;28;20262;-68
2022/03/12 06:12:43;;;;;;;3.60;3.30;;;16.30;45.20;;;;;;5052381;28;20179;-67
2022/03/12 06:15:13;;;;;;;3.58;3.28;;;16.30;45.10;;;;;;5051282;28;20574;-68
2022/03/12 06:17:39;;;;;;;3.40;3.10;;;16.20;45.10;;;;;;5052842;28;20225;-67
2022/03/12 06:20:06;;;;;;;3.53;3.22;;;16.30;45.10;;;;;;5055436;28;20190;-66
2022/03/12 06:22:31;;;;;;;3.97;3.58;;;16.20;45.10;;;;;;5055619;28;20179;-68
2022/03/12 06:25:00;;;;;;;3.08;2.88;;;16.30;45.10;;;;;;5056112;28;20313;-68
2022/03/12 06:27:25;;;;;;;3.55;2.95;;;16.20;45.00;;;;;;5055748;28;20637;-67
2022/03/12 06:29:52;;;;;;;3.33;3.03;;;16.30;45.00;;;;;;5055369;28;20175;-66
2022/03/12 06:32:17;;;;;;;3.35;3.05;;;16.30;45.20;;;;;;5055924;28;20542;-67
2022/03/12 06:34:43;;;;;;;4.53;3.55;;;16.20;45.10;;;;;;5055921;28;20626;-67
2022/03/12 06:37:09;;;;;;;3.78;3.38;;;16.30;45.10;;;;;;5054988;28;20175;-66
2022/03/12 06:39:35;;;;;;;3.10;2.90;;;16.30;45.10;;;;;;5056018;28;20171;-66
2022/03/12 06:42:02;;;;;;;3.92;3.55;;;16.20;45.10;;;;;;5055744;28;20182;-66
2022/03/12 06:44:32;;;;;;;3.78;3.15;;;16.20;45.10;;;;;;5054672;28;20183;-67
2022/03/12 06:46:59;;;;;;;3.42;3.13;;;16.30;45.20;;;;;;5056091;28;20189;-67
2022/03/12 06:49:25;;;;;;;3.22;3.03;;;16.30;45.20;;;;;;5054875;28;20191;-68
2022/03/12 06:51:50;;;;;;;3.42;3.13;;;16.30;45.20;;;;;;5055856;28;20179;-67
2022/03/12 06:54:16;;;;;;;3.75;3.45;;;16.20;45.20;;;;;;5055313;28;20172;-67
2022/03/12 06:56:41;;;;;;;3.05;2.83;;;16.20;45.20;;;;;;5054587;28;20227;-68
2022/03/12 06:59:07;;;;;;;2.90;2.70;;;16.30;45.30;;;;;;5055441;28;20179;-66
2022/03/12 07:01:32;;;;;;;3.03;2.83;;;16.30;45.10;;;;;;5055625;28;20167;-65
2022/03/12 07:03:58;;;;;;;3.75;3.45;;;16.30;45.00;;;;;;5054691;28;20548;-64
2022/03/12 07:06:23;;;;;;;3.33;3.03;;;16.40;44.90;;;;;;5055033;28;20219;-65
2022/03/12 07:08:50;;;;;;;3.80;3.40;;;16.50;44.80;;;;;;5055343;28;20498;-67
2022/03/12 07:11:16;;;;;;;3.45;3.15;;;16.50;44.60;;;;;;5054252;28;20190;-67
2022/03/12 07:13:42;;;;;;;3.67;3.08;;;16.60;44.50;;;;;;5055105;28;20702;-74
2022/03/12 07:16:08;;;;;;;3.10;2.90;;;16.70;44.50;;;;;;5055148;28;20232;-73
2022/03/12 07:18:33;;;;;;;3.58;3.28;;;16.70;44.40;;;;;;5054535;28;20179;-67
2022/03/12 07:20:59;;;;;;;3.55;3.10;;;16.80;44.40;;;;;;5055202;28;20266;-67
2022/03/12 07:23:24;;;;;;;4.78;3.05;;;16.80;44.40;;;;;;5054782;28;20658;-66
2022/03/12 07:25:52;;;;;;;4.20;3.22;;;16.90;44.50;;;;;;5054269;28;20214;-69
2022/03/12 07:28:19;;;;;;;6.00;3.30;;;17.00;44.60;;;;;;5054785;28;20198;-66
2022/03/12 07:30:44;;;;;;;4.40;3.38;;;17.10;44.70;;;;;;5054560;28;20183;-65
2022/03/12 07:33:10;;;;;;;5.68;3.00;;;17.30;44.60;;;;;;5053881;28;20171;-66
2022/03/12 07:35:35;;;;;;;4.22;2.97;;;17.50;44.40;;;;;;5054850;28;20178;-66
2022/03/12 07:38:01;;;;;;;5.93;3.25;;;17.80;44.20;;;;;;5054866;28;20174;-65
2022/03/12 07:40:26;;;;;;;6.30;3.25;;;18.00;44.10;;;;;;5053681;28;20187;-67
2022/03/12 07:42:52;;;;;;;4.25;3.08;;;18.20;43.80;;;;;;5054948;28;20172;-65
2022/03/12 07:45:19;;;;;;;3.88;3.13;;;18.30;43.90;;;;;;5054452;28;20199;-64
2022/03/12 07:47:44;;;;;;;4.22;3.22;;;18.40;43.80;;;;;;5053886;28;20634;-65
2022/03/12 07:50:10;;;;;;;6.70;3.58;;;18.50;43.80;;;;;;5053611;28;20178;-67
2022/03/12 07:52:36;;;;;;;8.00;3.30;;;18.50;43.70;;;;;;5053002;28;20476;-66
2022/03/12 07:55:02;;;;;;;5.18;3.17;;;18.50;43.80;;;;;;5053859;28;20224;-66
2022/03/12 07:57:28;;;;;;;4.28;2.97;;;18.60;44.00;;;;;;5053037;28;20191;-65
2022/03/12 07:59:54;;;;;;;4.47;2.90;;;18.60;44.00;;;;;;5053993;28;20198;-67
2022/03/12 08:02:20;;;;;;;5.00;3.15;;;18.60;44.00;;;;;;5053444;28;20262;-66
2022/03/12 08:04:46;;;;;;;3.50;3.15;;;18.60;44.00;;;;;;5053700;28;20249;-66
2022/03/12 08:07:11;;;;;;;6.35;3.30;;;18.60;44.10;;;;;;5052485;28;20634;-66
2022/03/12 08:09:37;;;;;;;3.42;2.97;;;18.60;44.10;;;;;;5053579;28;20174;-67
2022/03/12 08:12:03;;;;;;;5.90;3.03;;;18.60;44.40;;;;;;5053992;28;20201;-63
2022/03/12 08:14:31;;;;;;;6.60;3.28;;;18.70;44.30;;;;;;5052943;28;20641;-63
2022/03/12 08:16:57;;;;;;;3.72;2.50;;;18.70;44.20;;;;;;5054023;28;20637;-73
2022/03/12 08:19:22;;;;;;;5.10;3.45;;;18.70;44.40;;;;;;5053622;28;20186;-68
2022/03/12 08:21:50;;;;;;;5.57;3.35;;;18.70;44.40;;;;;;5053221;28;20167;-66
2022/03/12 08:24:16;;;;;;;4.00;2.50;;;18.70;44.40;;;;;;5053035;28;20179;-68
2022/03/12 08:26:45;;;;;;;4.15;3.05;;;18.80;44.40;;;;;;5054057;28;20256;-67
2022/03/12 08:29:12;;;;;;;4.07;2.90;;;18.80;44.40;;;;;;5052851;28;20181;-68
2022/03/12 08:31:38;;;;;;;2.70;2.50;;;18.70;44.40;;;;;;5053733;28;20187;-68
2022/03/12 08:34:04;;;;;;;5.10;2.70;;;18.70;44.40;;;;;;5053834;28;20175;-65
2022/03/12 08:36:29;;;;;;;4.25;2.80;;;18.70;44.70;;;;;;5052589;28;20179;-67
2022/03/12 08:38:55;;;;;;;4.60;3.08;;;18.80;44.70;;;;;;5053645;28;20183;-67
2022/03/12 08:41:21;;;;;;;2.90;2.58;;;18.80;44.60;;;;;;5052603;28;20573;-66
2022/03/12 08:43:47;;;;;;;3.50;2.70;;;18.70;44.70;;;;;;5052940;28;20274;-68
2022/03/12 08:46:13;;;;;;;2.63;2.42;;;18.70;44.90;;;;;;5053138;28;20301;-68
2022/03/12 08:48:39;;;;;;;2.70;2.30;;;18.60;45.00;;;;;;5053521;28;20209;-65
2022/03/12 08:51:05;;;;;;;2.55;2.33;;;18.70;45.00;;;;;;5052616;28;20294;-64
2022/03/12 08:53:31;;;;;;;2.80;2.50;;;18.70;45.00;;;;;;5053226;28;20636;-64
2022/03/12 08:55:57;;;;;;;4.28;2.38;;;18.70;45.00;;;;;;5052531;28;20237;-62
2022/03/12 08:58:23;;;;;;;5.65;2.78;;;18.70;44.90;;;;;;5053145;28;20259;-67
2022/03/12 09:00:52;;;;;;;4.30;3.03;;;18.60;45.00;;;;;;5053371;28;20258;-64
2022/03/12 09:03:18;;;;;;;4.35;2.55;;;18.70;45.20;;;;;;5052097;28;20541;-66
2022/03/12 09:05:43;;;;;;;8.43;3.17;;;18.60;45.10;;;;;;5052954;28;20203;-66
2022/03/12 09:08:09;;;;;;;5.32;3.00;;;18.60;45.10;;;;;;5052640;28;20186;-66
2022/03/12 09:10:34;;;;;;;7.53;3.63;;;18.50;45.20;;;;;;5052316;28;20234;-66
2022/03/12 09:13:00;;;;;;;4.07;2.80;;;18.50;45.30;;;;;;5053143;28;20228;-66
2022/03/12 09:15:25;;;;;;;6.40;2.92;;;18.50;45.40;;;;;;5045759;28;20230;-66
2022/03/12 09:17:51;;;;;;;8.00;3.25;;;18.50;45.40;;;;;;5034651;28;20230;-66
2022/03/12 09:20:17;;;;;;;7.72;3.15;;;18.60;45.40;;;;;;5051973;28;20560;-66
2022/03/12 09:22:42;;;;;;;3.17;2.83;;;18.50;45.30;;;;;;5052804;28;20536;-66
2022/03/12 09:25:12;;;;;;;6.03;3.00;;;18.50;45.40;;;;;;5051869;28;20214;-66
2022/03/12 09:27:37;;;;;;;4.05;2.80;;;18.50;45.30;;;;;;5052750;28;20182;-66
2022/03/12 09:30:04;;;;;;;4.18;2.90;;;18.50;45.30;;;;;;5052761;28;20186;-67
2022/03/12 09:32:29;;;;;;;3.67;2.75;;;18.50;45.40;;;;;;5051622;28;20197;-67
2022/03/12 09:34:55;;;;;;;4.22;3.25;;;18.50;45.50;;;;;;5052818;28;20168;-64
2022/03/12 09:37:20;;;;;;;3.40;2.83;;;18.50;45.50;;;;;;5052477;28;20175;-65
2022/03/12 09:39:46;;;;;;;3.63;3.22;;;18.50;45.50;;;;;;5051938;28;20260;-66
2022/03/12 09:42:12;;;;;;;3.97;2.72;;;18.50;45.60;;;;;;5052475;28;20207;-66
2022/03/12 09:44:37;;;;;;;4.60;2.90;;;18.50;45.60;;;;;;5052585;28;20195;-66
2022/03/12 09:47:03;;;;;;;4.85;2.50;;;18.50;45.70;;;;;;5051847;28;20642;-66
2022/03/12 09:49:29;;;;;;;5.45;2.80;;;18.50;45.60;;;;;;5034857;28;20176;-67
2022/03/12 09:51:57;;;;;;;3.83;2.70;;;18.50;45.70;;;;;;5032782;28;20172;-66
2022/03/12 09:54:22;;;;;;;3.38;2.72;;;18.50;45.70;;;;;;5031561;28;20183;-66
2022/03/12 09:56:48;;;;;;;4.65;2.70;;;18.50;45.90;;;;;;5032339;28;20227;-66
2022/03/12 09:59:13;;;;;;;3.60;2.70;;;18.50;45.80;;;;;;5031536;28;20176;-66
2022/03/12 10:01:39;;;;;;;2.55;2.28;;;18.40;45.80;;;;;;5032468;28;20511;-66
2022/03/12 10:04:05;;;;;;;4.13;2.83;;;18.40;45.90;;;;;;5032220;28;20207;-65
2022/03/12 10:06:31;;;;;;;3.78;2.50;;;18.40;46.00;;;;;;5031663;28;20222;-66
2022/03/12 10:08:57;;;;;;;5.22;2.60;;;18.40;46.00;;;;;;5032498;28;20187;-67
2022/03/12 10:11:22;;;;;;;4.15;2.63;;;18.40;46.00;;;;;;5032060;28;20180;-68
2022/03/12 10:13:48;;;;;;;4.15;2.40;;;18.40;46.00;;;;;;5031578;28;20562;-69
2022/03/12 10:16:14;;;;;;;7.78;2.50;;;18.40;46.10;;;;;;5032077;28;20218;-70
2022/03/12 10:18:41;;;;;;;4.35;2.53;;;18.40;46.10;;;;;;5032129;28;20176;-69
2022/03/12 10:21:07;;;;;;;4.15;2.90;;;18.40;46.10;;;;;;5031318;28;20217;-69
2022/03/12 10:23:33;;;;;;;2.78;2.53;;;18.50;46.30;;;;;;5048719;28;20171;-71
2022/03/12 10:25:59;;;;;;;4.40;2.20;;;18.40;46.20;;;;;;5052216;28;20214;-70
2022/03/12 10:28:25;;;;;;;5.07;2.90;;;18.40;46.40;;;;;;5051156;28;20470;-66
2022/03/12 10:30:50;;;;;;;5.57;2.90;;;18.40;46.40;;;;;;5052382;28;20179;-66
2022/03/12 10:33:23;;;;;;;4.97;2.42;;;18.40;46.50;;;;;;5051730;28;20171;-66
2022/03/12 10:35:49;;;;;;;3.47;2.33;;;18.30;46.50;;;;;;5051566;28;20186;-67
2022/03/12 10:38:14;;;;;;;5.70;2.75;;;18.30;46.60;;;;;;5051929;28;20176;-67
2022/03/12 10:40:40;;;;;;;4.25;3.13;;;18.30;46.50;;;;;;5051997;28;20175;-68
2022/03/12 10:43:12;;;;;;;5.50;3.08;;;18.30;46.50;;;;;;5051250;28;20175;-68
2022/03/12 10:45:47;;;;;;;7.80;2.63;;;18.30;46.70;;;;;;5051219;28;20234;-68
2022/03/12 10:48:14;;;;;;;6.45;2.80;;;18.40;46.90;;;;;;5048743;28;20190;-67
2022/03/12 10:50:44;;;;;;;5.38;2.50;;;18.40;46.80;;;;;;5051204;28;20171;-68
2022/03/12 10:53:10;;;;;;;3.20;2.42;;;18.40;46.80;;;;;;5051384;28;20179;-66
2022/03/12 10:55:38;;;;;;;5.15;2.35;;;18.30;46.80;;;;;;5050893;28;20234;-67
2022/03/12 10:58:05;;;;;;;4.45;2.55;;;18.40;46.90;;;;;;5051733;28;20624;-71
2022/03/12 11:00:56;;;;;;;3.00;2.38;;;18.30;46.80;;;;;;5051811;28;20185;-69
2022/03/12 11:03:29;;;;;;;4.03;2.63;;;18.40;46.90;;;;;;5050800;28;20641;-69
2022/03/12 11:05:56;;;;;;;4.40;2.30;;;18.40;47.00;;;;;;5054242;28;20238;-69
2022/03/12 11:08:31;;;;;;;3.55;2.63;;;18.30;47.00;;;;;;5054696;28;20178;-70
2022/03/12 11:11:10;;;;;;;4.07;2.60;;;18.30;47.00;;;;;;5054592;28;20274;-67
2022/03/12 11:13:44;;;;;;;3.42;2.53;;;18.30;47.10;;;;;;5055611;28;20182;-64
2022/03/12 11:16:14;;;;;;;4.53;2.33;;;18.20;47.00;;;;;;5055184;28;20526;-65
2022/03/12 11:18:52;;;;;;;3.63;2.25;;;18.20;47.00;;;;;;5054621;28;20175;-70
2022/03/12 11:21:43;;;;;;;2.75;2.55;;;18.20;47.10;;;;;;5055073;28;20179;-69
2022/03/12 11:24:22;;;;;;;3.92;2.63;;;18.20;47.20;;;;;;5034292;28;20179;-69
2022/03/12 11:26:48;;;;;;;4.97;2.60;;;18.20;47.20;;;;;;5035122;28;20620;-68
2022/03/12 11:29:15;;;;;;;3.67;2.30;;;18.20;47.20;;;;;;5034887;28;20168;-68
2022/03/12 11:31:50;;;;;;;5.93;2.90;;;18.20;47.20;;;;;;5034385;28;20208;-67
2022/03/12 11:34:20;;;;;;;5.82;2.65;;;18.20;47.10;;;;;;5035013;28;20199;-67
2022/03/12 11:37:04;;;;;;;5.50;2.60;;;18.20;47.10;;;;;;5035061;28;20175;-66
2022/03/12 11:39:39;;;;;;;4.72;2.85;;;18.20;47.20;;;;;;5034152;28;20206;-67
2022/03/12 11:42:13;;;;;;;4.15;2.50;;;18.30;47.20;;;;;;5034810;28;20180;-66
2022/03/12 11:44:40;;;;;;;3.03;2.30;;;18.30;47.20;;;;;;5034399;28;20176;-67
2022/03/12 11:47:06;;;;;;;4.90;2.58;;;18.30;47.20;;;;;;5034729;28;20175;-69
2022/03/12 11:49:32;;;;;;;3.08;2.25;;;18.40;47.20;;;;;;5034808;28;20176;-68
2022/03/12 11:51:59;;;;;;;3.88;2.55;;;18.40;47.10;;;;;;5034041;28;20183;-68
2022/03/12 11:54:25;;;;;;;3.60;2.15;;;18.30;46.90;;;;;;5033974;28;20184;-68
2022/03/12 11:56:51;;;;;;;3.10;2.30;;;18.40;47.10;;;;;;5034459;28;20224;-67
2022/03/12 11:59:18;;;;;;;5.43;2.83;;;18.40;46.90;;;;;;5033415;28;20598;-68
2022/03/12 12:01:44;;;;;;;3.78;2.80;;;18.50;46.90;;;;;;5034665;28;20184;-67
2022/03/12 12:04:10;;;;;;;4.70;3.08;;;18.50;46.90;;;;;;5032712;28;20577;-67
2022/03/12 12:06:36;;;;;;;7.30;3.58;;;18.50;46.80;;;;;;5033742;28;20682;-68
2022/03/12 12:09:02;;;;;;;4.35;2.65;;;18.50;46.70;;;;;;5034399;28;20172;-67
2022/03/12 12:11:31;;;;;;;4.47;3.20;;;18.60;46.70;;;;;;5034214;28;20634;-68
2022/03/12 12:13:58;;;;;;;6.15;2.72;;;18.60;46.60;;;;;;5033610;28;20180;-69
2022/03/12 12:16:29;;;;;;;7.93;2.72;;;18.70;46.60;;;;;;5033930;28;20362;-71
2022/03/12 12:18:54;;;;;;;6.88;3.38;;;18.70;46.50;;;;;;5034225;28;20192;-66
2022/03/12 12:21:20;;;;;;;4.65;2.88;;;18.70;46.40;;;;;;5033122;28;20176;-66
2022/03/12 12:23:46;;;;;;;5.22;3.42;;;18.70;46.50;;;;;;5051889;28;20187;-66
2022/03/12 12:26:13;;;;;;;4.13;2.88;;;18.70;46.50;;;;;;5053761;28;20269;-67
2022/03/12 12:28:52;;;;;;;6.78;2.78;;;18.70;46.50;;;;;;5053322;28;20179;-68
2022/03/12 12:31:27;;;;;;;4.85;2.80;;;18.70;46.50;;;;;;5053584;28;20179;-66
2022/03/12 12:33:56;;;;;;;3.55;3.00;;;18.60;46.50;;;;;;5053096;28;20258;-66
2022/03/12 12:36:22;;;;;;;5.78;2.50;;;18.60;46.70;;;;;;5053176;28;20669;-66
2022/03/12 12:39:06;;;;;;;3.63;2.75;;;18.50;46.70;;;;;;5053997;28;20202;-66
2022/03/12 12:41:52;;;;;;;4.47;2.65;;;18.60;46.70;;;;;;5053041;28;20175;-66
2022/03/12 12:44:32;;;;;;;5.15;3.78;;;18.50;46.70;;;;;;5053401;28;20226;-67
2022/03/12 12:46:58;;;;;;;4.80;3.45;;;18.60;46.70;;;;;;5052674;28;20260;-67
2022/03/12 12:49:39;;;;;;;4.32;2.60;;;18.60;46.60;;;;;;5052654;28;20175;-66